createdAt,value
2022-12-27T00:00:23.069Z,101241.09
2022-12-27T00:03:24.712Z,101247.31
2022-12-27T00:06:28.220Z,101247.00
2022-12-27T00:09:30.151Z,101251.06
2022-12-27T00:12:33.267Z,101260.16
2022-12-27T00:15:36.187Z,101275.25
2022-12-27T00:18:39.757Z,101270.75
2022-12-27T00:21:41.422Z,101265.88
2022-12-27T00:24:43.272Z,101275.53
2022-12-27T00:27:46.375Z,101274.50
2022-12-27T00:30:54.564Z,101271.38
2022-12-27T00:33:58.504Z,101271.47
2022-12-27T00:37:00.125Z,101273.59
2022-12-27T00:40:01.774Z,101274.16
2022-12-27T00:43:04.774Z,101275.97
2022-12-27T00:46:07.206Z,101283.09
2022-12-27T00:49:08.973Z,101288.56
2022-12-27T00:52:10.569Z,101288.88
2022-12-27T00:55:12.223Z,101281.16
2022-12-27T00:58:15.218Z,101285.69
2022-12-27T01:01:19.879Z,101281.97
2022-12-27T01:04:22.619Z,101293.88
2022-12-27T01:07:24.421Z,101287.03
2022-12-27T01:10:26.077Z,101300.72
2022-12-27T01:13:29.065Z,101307.25
2022-12-27T01:16:32.034Z,101314.78
2022-12-27T01:19:35.383Z,101306.13
2022-12-27T01:22:37.325Z,101313.72
2022-12-27T01:25:39.030Z,101318.56
2022-12-27T01:28:42.347Z,101315.84
2022-12-27T01:31:44.134Z,101321.44
2022-12-27T01:34:45.968Z,101324.81
2022-12-27T01:37:47.556Z,101324.81
2022-12-27T01:40:49.208Z,101322.72
2022-12-27T01:43:52.184Z,101324.38
2022-12-27T01:46:54.603Z,101328.63
2022-12-27T01:50:03.313Z,101331.19
2022-12-27T01:53:10.427Z,101337.94
2022-12-27T01:56:17.307Z,101345.34
2022-12-27T01:59:20.380Z,101350.75
2022-12-27T02:02:22.572Z,101351.19
2022-12-27T02:05:26.988Z,101352.97
2022-12-27T02:08:37.134Z,101352.75
2022-12-27T02:11:51.108Z,101361.06
2022-12-27T02:14:54.168Z,101357.03
2022-12-27T02:17:56.323Z,101364.16
2022-12-27T02:21:22.924Z,101367.47
2022-12-27T02:24:41.090Z,101364.16
2022-12-27T02:27:59.841Z,101371.22
2022-12-27T02:31:07.943Z,101368.97
2022-12-27T02:34:15.144Z,101376.56
2022-12-27T02:37:19.824Z,101378.53
2022-12-27T02:40:42.600Z,101382.91
2022-12-27T02:44:03.051Z,101390.41
2022-12-27T02:47:35.696Z,101374.09
2022-12-27T02:51:14.386Z,101379.44
2022-12-27T02:54:34.322Z,101376.63
2022-12-27T02:57:43.277Z,101377.72
2022-12-27T03:01:11.320Z,101391.13
2022-12-27T03:04:26.472Z,101379.94
2022-12-27T03:07:36.482Z,101384.78
2022-12-27T03:11:05.323Z,101390.41
2022-12-27T03:14:31.497Z,101393.94
2022-12-27T03:17:39.857Z,101391.63
2022-12-27T03:21:03.882Z,101385.56
2022-12-27T03:24:25.895Z,101390.16
2022-12-27T03:27:33.189Z,101394.81
2022-12-27T03:30:56.616Z,101388.63
2022-12-27T03:34:26.790Z,101396.53
2022-12-27T03:37:54.194Z,101391.50
2022-12-27T03:41:19.582Z,101392.78
2022-12-27T03:44:25.497Z,101399.94
2022-12-27T03:47:35.686Z,101395.41
2022-12-27T03:50:43.623Z,101404.09
2022-12-27T03:53:49.636Z,101406.22
2022-12-27T03:56:51.551Z,101410.75
2022-12-27T03:59:53.596Z,101385.47
2022-12-27T04:02:55.534Z,101388.91
2022-12-27T04:05:57.238Z,101388.63
2022-12-27T04:09:18.932Z,101386.34
2022-12-27T04:12:39.537Z,101402.81
2022-12-27T04:15:59.759Z,101404.53
2022-12-27T04:19:20.199Z,101405.25
2022-12-27T04:22:40.615Z,101404.03
2022-12-27T04:26:02.597Z,101399.41
2022-12-27T04:29:23.054Z,101403.63
2022-12-27T04:32:43.409Z,101396.81
2022-12-27T04:35:45.003Z,101383.53
2022-12-27T04:38:46.602Z,101393.78
2022-12-27T04:42:08.212Z,101386.28
2022-12-27T04:45:28.968Z,101393.94
2022-12-27T04:48:49.362Z,101395.22
2022-12-27T04:52:09.657Z,101390.97
2022-12-27T04:55:19.803Z,101391.25
2022-12-27T04:58:22.726Z,101393.06
2022-12-27T05:01:43.276Z,101390.94
2022-12-27T05:04:47.698Z,101390.13
2022-12-27T05:08:08.496Z,101400.81
2022-12-27T05:11:29.891Z,101404.81
2022-12-27T05:14:32.990Z,101409.28
2022-12-27T05:17:34.583Z,101413.91
2022-12-27T05:20:36.364Z,101423.31
2022-12-27T05:24:01.708Z,101428.78
2022-12-27T05:27:06.682Z,101439.25
2022-12-27T05:30:11.303Z,101441.97
2022-12-27T05:33:12.948Z,101446.00
2022-12-27T05:36:14.715Z,101436.63
2022-12-27T05:39:16.317Z,101434.69
2022-12-27T05:42:17.939Z,101433.84
2022-12-27T05:45:21.150Z,101437.22
2022-12-27T05:48:23.006Z,101432.00
2022-12-27T05:51:24.772Z,101435.91
2022-12-27T05:54:26.422Z,101428.91
2022-12-27T05:57:28.146Z,101443.78
2022-12-27T06:00:31.192Z,101434.50
2022-12-27T06:03:32.967Z,101441.81
2022-12-27T06:06:35.152Z,101455.66
2022-12-27T06:09:36.841Z,101442.69
2022-12-27T06:12:38.659Z,101458.28
2022-12-27T06:15:41.585Z,101465.47
2022-12-27T06:18:43.378Z,101471.34
2022-12-27T06:21:45.115Z,101466.50
2022-12-27T06:24:46.742Z,101472.38
2022-12-27T06:27:48.403Z,101466.72
2022-12-27T06:30:51.471Z,101470.78
2022-12-27T06:33:53.784Z,101470.34
2022-12-27T06:36:55.435Z,101476.97
2022-12-27T06:39:57.788Z,101474.38
2022-12-27T06:42:59.412Z,101474.75
2022-12-27T06:46:04.265Z,101486.19
2022-12-27T06:49:05.979Z,101484.19
2022-12-27T06:52:07.633Z,101491.75
2022-12-27T06:55:09.866Z,101495.41
2022-12-27T06:58:12.837Z,101500.16
2022-12-27T07:01:17.849Z,101491.25
2022-12-27T07:04:19.715Z,101501.13
2022-12-27T07:07:21.434Z,101500.06
2022-12-27T07:10:23.211Z,101493.63
2022-12-27T07:13:24.973Z,101503.19
2022-12-27T07:16:29.959Z,101497.56
2022-12-27T07:19:31.707Z,101512.22
2022-12-27T07:22:33.781Z,101517.31
2022-12-27T07:25:35.454Z,101517.47
2022-12-27T07:28:37.595Z,101528.19
2022-12-27T07:31:40.712Z,101533.28
2022-12-27T07:34:42.304Z,101545.28
2022-12-27T07:37:43.902Z,101555.25
2022-12-27T07:40:45.541Z,101563.19
2022-12-27T07:43:47.430Z,101558.47
2022-12-27T07:46:51.191Z,101561.34
2022-12-27T07:49:52.888Z,101551.44
2022-12-27T07:52:54.594Z,101555.25
2022-12-27T07:55:56.586Z,101568.38
2022-12-27T07:59:01.220Z,101571.25
2022-12-27T08:02:04.472Z,101575.69
2022-12-27T08:05:06.691Z,101573.97
2022-12-27T08:08:09.326Z,101582.81
2022-12-27T08:11:11.261Z,101579.91
2022-12-27T08:14:12.897Z,101568.00
2022-12-27T08:17:20.278Z,101571.66
2022-12-27T08:20:21.987Z,101577.06
2022-12-27T08:23:23.656Z,101572.88
2022-12-27T08:26:25.308Z,101573.34
2022-12-27T08:29:26.980Z,101564.50
2022-12-27T08:32:29.993Z,101557.88
2022-12-27T08:38:54.615Z,101565.53
2022-12-27T08:41:56.389Z,101569.66
2022-12-27T08:44:58.392Z,101563.78
2022-12-27T08:48:01.803Z,101559.13
2022-12-27T08:51:08.973Z,101558.84
2022-12-27T08:54:14.382Z,101568.69
2022-12-27T08:57:16.001Z,101565.09
2022-12-27T09:00:18.964Z,101577.72
2022-12-27T09:03:30.253Z,101575.41
2022-12-27T09:06:31.972Z,101575.25
2022-12-27T09:09:33.605Z,101576.75
2022-12-27T09:12:35.435Z,101575.34
2022-12-27T09:15:37.530Z,101596.94
2022-12-27T09:18:42.006Z,101597.06
2022-12-27T09:21:44.156Z,101599.38
2022-12-27T09:24:45.886Z,101596.69
2022-12-27T09:27:47.613Z,101591.09
2022-12-27T09:30:49.254Z,101591.72
2022-12-27T09:33:52.771Z,101592.88
2022-12-27T09:36:54.478Z,101596.97
2022-12-27T09:39:56.987Z,101599.56
2022-12-27T09:43:20.639Z,101606.63
2022-12-27T09:46:28.681Z,101600.38
2022-12-27T09:49:35.999Z,101609.78
2022-12-27T09:52:44.011Z,101609.06
2022-12-27T09:55:48.814Z,101602.28
2022-12-27T09:58:52.834Z,101595.72
2022-12-27T10:01:54.792Z,101591.84
2022-12-27T10:08:33.251Z,101595.31
2022-12-27T10:11:43.596Z,101592.63
2022-12-27T10:14:59.777Z,101602.28
2022-12-27T10:18:13.229Z,101605.22
2022-12-27T10:21:21.902Z,101604.56
2022-12-27T10:24:32.454Z,101596.88
2022-12-27T10:27:35.216Z,101592.72
2022-12-27T10:30:36.913Z,101592.78
2022-12-27T10:33:40.124Z,101589.88
2022-12-27T10:36:44.864Z,101599.84
2022-12-27T10:39:46.533Z,101592.47
2022-12-27T10:43:00.124Z,101598.34
2022-12-27T10:46:11.729Z,101582.78
2022-12-27T10:49:24.423Z,101588.59
2022-12-27T10:52:31.724Z,101586.81
2022-12-27T10:55:36.855Z,101593.41
2022-12-27T10:58:40.626Z,101594.13
2022-12-27T11:01:43.130Z,101585.78
2022-12-27T11:04:59.358Z,101594.13
2022-12-27T11:08:20.348Z,101600.25
2022-12-27T11:11:24.524Z,101595.69
2022-12-27T11:14:26.196Z,101592.94
2022-12-27T11:17:35.033Z,101589.69
2022-12-27T11:20:40.611Z,101589.59
2022-12-27T11:23:47.163Z,101586.25
2022-12-27T11:26:54.977Z,101588.75
2022-12-27T11:29:58.759Z,101583.78
2022-12-27T11:33:03.905Z,101584.09
2022-12-27T11:36:06.459Z,101572.13
2022-12-27T11:39:37.447Z,101574.31
2022-12-27T11:42:42.746Z,101569.91
2022-12-27T11:45:50.466Z,101566.72
2022-12-27T11:48:57.117Z,101562.03
2022-12-27T11:52:30.043Z,101556.69
2022-12-27T11:55:52.242Z,101556.78
2022-12-27T11:59:26.016Z,101549.53
2022-12-27T12:02:36.079Z,101550.31
2022-12-27T12:05:57.562Z,101544.97
2022-12-27T12:09:27.028Z,101549.59
2022-12-27T12:12:57.554Z,101561.16
2022-12-27T12:16:26.111Z,101551.34
2022-12-27T12:19:43.551Z,101556.69
2022-12-27T12:22:57.436Z,101559.84
2022-12-27T12:26:16.313Z,101549.19
2022-12-27T12:29:31.590Z,101538.00
2022-12-27T12:32:39.277Z,101542.69
2022-12-27T12:35:56.598Z,101546.03
2022-12-27T12:39:08.370Z,101542.66
2022-12-27T12:42:26.162Z,101541.31
2022-12-27T12:45:42.966Z,101535.22
2022-12-27T12:49:17.113Z,101527.38
2022-12-27T12:52:31.282Z,101528.44
2022-12-27T12:55:43.961Z,101531.59
2022-12-27T12:58:57.122Z,101525.13
2022-12-27T13:02:18.012Z,101517.25
2022-12-27T13:05:27.145Z,101513.88
2022-12-27T13:08:33.300Z,101519.91
2022-12-27T13:11:44.412Z,101523.06
2022-12-27T13:15:04.119Z,101517.06
2022-12-27T13:18:28.358Z,101511.22
2022-12-27T13:21:49.178Z,101510.38
2022-12-27T13:25:01.136Z,101502.88
2022-12-27T13:28:18.814Z,101508.63
2022-12-27T13:31:35.571Z,101506.59
2022-12-27T13:34:48.213Z,101512.31
2022-12-27T13:38:02.210Z,101505.84
2022-12-27T13:41:34.376Z,101510.53
2022-12-27T13:44:44.411Z,101512.72
2022-12-27T13:48:10.155Z,101511.19
2022-12-27T13:51:35.163Z,101512.34
2022-12-27T13:55:05.811Z,101511.50
2022-12-27T13:58:38.905Z,101501.13
2022-12-27T14:02:01.656Z,101503.88
2022-12-27T14:05:41.605Z,101503.84
2022-12-27T14:09:31.688Z,101497.66
2022-12-27T14:12:55.482Z,101494.00
2022-12-27T14:16:18.322Z,101499.16
2022-12-27T14:19:52.592Z,101492.94
2022-12-27T14:23:15.593Z,101506.16
2022-12-27T14:27:14.189Z,101514.91
2022-12-27T14:30:46.289Z,101511.28
2022-12-27T14:34:16.562Z,101507.38
2022-12-27T14:37:48.030Z,101505.38
2022-12-27T14:41:12.678Z,101508.50
2022-12-27T14:44:47.934Z,101503.44
2022-12-27T14:48:26.072Z,101497.78
2022-12-27T14:52:15.959Z,101496.28
2022-12-27T14:55:30.053Z,101490.97
2022-12-27T14:58:47.281Z,101492.03
2022-12-27T15:02:14.989Z,101494.50
2022-12-27T15:05:31.084Z,101484.41
2022-12-27T15:09:05.387Z,101481.66
2022-12-27T15:12:23.306Z,101485.00
2022-12-27T15:15:34.536Z,101486.03
2022-12-27T15:18:53.643Z,101489.00
2022-12-27T15:22:06.619Z,101493.09
2022-12-27T15:25:20.525Z,101493.50
2022-12-27T15:28:35.064Z,101491.41
2022-12-27T15:31:47.914Z,101498.81
2022-12-27T15:35:05.415Z,101494.56
2022-12-27T15:38:14.394Z,101495.72
2022-12-27T15:41:57.674Z,101500.59
2022-12-27T15:45:07.206Z,101500.81
2022-12-27T15:48:39.929Z,101486.41
2022-12-27T15:51:50.985Z,101490.34
2022-12-27T15:55:14.563Z,101491.50
2022-12-27T15:58:18.337Z,101494.72
2022-12-27T16:01:27.756Z,101485.56
2022-12-27T16:04:48.071Z,101482.41
2022-12-27T16:07:51.783Z,101481.38
2022-12-27T16:10:56.592Z,101485.22
2022-12-27T16:14:23.554Z,101473.66
2022-12-27T16:17:34.934Z,101476.69
2022-12-27T16:20:36.748Z,101480.09
2022-12-27T16:23:48.481Z,101473.00
2022-12-27T16:26:55.978Z,101472.41
2022-12-27T16:29:58.682Z,101466.81
2022-12-27T16:33:01.056Z,101464.00
2022-12-27T16:36:15.902Z,101455.22
2022-12-27T16:39:49.059Z,101442.69
2022-12-27T16:43:31.275Z,101438.97
2022-12-27T16:47:01.313Z,101438.16
2022-12-27T16:50:25.465Z,101430.38
2022-12-27T16:53:56.086Z,101432.31
2022-12-27T16:57:30.537Z,101436.72
2022-12-27T17:00:40.950Z,101433.19
2022-12-27T17:03:46.506Z,101435.59
2022-12-27T17:06:54.151Z,101441.94
2022-12-27T17:09:55.867Z,101434.88
2022-12-27T17:13:02.974Z,101432.50
2022-12-27T17:16:19.736Z,101436.81
2022-12-27T17:19:30.522Z,101441.00
2022-12-27T17:22:35.207Z,101441.88
2022-12-27T17:25:44.081Z,101436.81
2022-12-27T17:28:55.886Z,101438.44
2022-12-27T17:32:10.961Z,101443.47
2022-12-27T17:35:18.000Z,101446.94
2022-12-27T17:38:32.023Z,101441.41
2022-12-27T17:42:07.992Z,101435.59
2022-12-27T17:45:21.614Z,101433.72
2022-12-27T17:48:27.881Z,101436.66
2022-12-27T17:51:33.346Z,101428.44
2022-12-27T17:54:53.561Z,101425.53
2022-12-27T17:57:56.393Z,101419.47
2022-12-27T18:01:01.853Z,101410.41
2022-12-27T18:04:06.665Z,101407.28
2022-12-27T18:07:12.830Z,101402.94
2022-12-27T18:10:21.942Z,101399.53
2022-12-27T18:13:26.471Z,101403.19
2022-12-27T18:16:35.533Z,101392.41
2022-12-27T18:19:38.715Z,101395.91
2022-12-27T18:22:40.340Z,101387.13
2022-12-27T18:25:54.182Z,101389.25
2022-12-27T18:28:55.860Z,101384.38
2022-12-27T18:32:02.524Z,101379.38
2022-12-27T18:35:16.488Z,101382.50
2022-12-27T18:38:29.752Z,101385.09
2022-12-27T18:41:35.687Z,101377.59
2022-12-27T18:44:44.489Z,101375.22
2022-12-27T18:47:48.207Z,101378.50
2022-12-27T18:50:53.443Z,101370.56
2022-12-27T18:53:54.921Z,101373.28
2022-12-27T18:56:58.302Z,101361.91
2022-12-27T19:00:02.464Z,101365.34
2022-12-27T19:07:57.165Z,101351.50
2022-12-27T19:10:58.914Z,101358.16
2022-12-27T19:14:01.438Z,101355.78
2022-12-27T19:17:10.408Z,101348.19
2022-12-27T19:20:21.427Z,101349.03
2022-12-27T19:23:33.534Z,101347.47
2022-12-27T19:26:35.341Z,101339.53
2022-12-27T19:29:48.380Z,101346.75
2022-12-27T19:32:49.960Z,101343.00
2022-12-27T19:35:52.425Z,101343.13
2022-12-27T19:38:57.164Z,101336.47
2022-12-27T19:42:02.512Z,101333.59
2022-12-27T19:45:04.575Z,101331.91
2022-12-27T19:48:06.963Z,101327.03
2022-12-27T19:51:15.122Z,101319.88
2022-12-27T19:54:20.751Z,101310.03
2022-12-27T19:57:22.549Z,101300.78
2022-12-27T20:00:24.622Z,101301.38
2022-12-27T20:03:27.310Z,101295.72
2022-12-27T20:06:30.129Z,101300.34
2022-12-27T20:09:33.277Z,101291.59
2022-12-27T20:12:35.568Z,101289.16
2022-12-27T20:15:37.191Z,101282.97
2022-12-27T20:18:40.090Z,101281.63
2022-12-27T20:21:42.023Z,101276.94
2022-12-27T20:29:31.837Z,101282.44
2022-12-27T20:32:33.443Z,101275.81
2022-12-27T20:35:35.665Z,101271.75
2022-12-27T20:38:39.049Z,101272.22
2022-12-27T20:41:40.776Z,101266.56
2022-12-27T20:44:43.731Z,101274.31
2022-12-27T20:47:45.392Z,101257.31
2022-12-27T20:50:47.078Z,101248.53
2022-12-27T20:53:54.043Z,101260.13
2022-12-27T20:56:55.776Z,101249.66
2022-12-27T20:59:58.728Z,101262.22
2022-12-27T21:03:00.527Z,101259.75
2022-12-27T21:06:06.081Z,101251.44
2022-12-27T21:09:08.693Z,101241.00
2022-12-27T21:12:10.324Z,101238.34
2022-12-27T21:15:13.410Z,101237.81
2022-12-27T21:18:15.048Z,101247.00
2022-12-27T21:21:19.812Z,101249.72
2022-12-27T21:24:21.618Z,101258.25
2022-12-27T21:27:23.257Z,101255.47
2022-12-27T21:30:26.219Z,101249.03
2022-12-27T21:33:28.837Z,101238.94
2022-12-27T21:36:32.273Z,101231.56
2022-12-27T21:39:34.087Z,101224.09
2022-12-27T21:42:35.735Z,101231.25
2022-12-27T21:45:38.709Z,101229.81
2022-12-27T21:48:40.669Z,101232.63
2022-12-27T21:51:45.604Z,101235.97
2022-12-27T21:54:47.230Z,101234.81
2022-12-27T21:57:48.901Z,101220.91
2022-12-27T22:00:57.656Z,101225.44
2022-12-27T22:03:59.770Z,101230.03
2022-12-27T22:07:01.477Z,101226.09
2022-12-27T22:10:03.438Z,101212.16
2022-12-27T22:13:05.020Z,101209.66
2022-12-27T22:16:12.532Z,101203.16
2022-12-27T22:19:14.313Z,101198.91
2022-12-27T22:22:15.941Z,101193.25
2022-12-27T22:25:17.574Z,101194.50
2022-12-27T22:28:19.270Z,101187.94
2022-12-27T22:31:24.788Z,101194.38
2022-12-27T22:34:26.509Z,101184.75
2022-12-27T22:37:28.136Z,101197.03
2022-12-27T22:40:41.220Z,101192.25
2022-12-27T22:43:51.261Z,101203.88
2022-12-27T22:50:16.222Z,101188.91
2022-12-27T22:53:17.958Z,101194.19
2022-12-27T22:56:21.712Z,101185.66
2022-12-27T22:59:23.299Z,101181.56
2022-12-27T23:02:26.370Z,101179.09
2022-12-27T23:05:28.053Z,101175.72
2022-12-27T23:08:29.841Z,101171.75
2022-12-27T23:11:33.700Z,101182.03
2022-12-27T23:14:35.367Z,101179.44
2022-12-27T23:17:38.540Z,101176.63
2022-12-27T23:21:20.441Z,101169.22
2022-12-27T23:24:02.319Z,101159.06
2022-12-27T23:27:04.074Z,101155.75
2022-12-27T23:30:06.988Z,101159.19
2022-12-27T23:33:10.262Z,101157.63
2022-12-27T23:36:13.202Z,101159.91
2022-12-27T23:39:14.909Z,101152.44
2022-12-27T23:42:16.479Z,101148.66
2022-12-27T23:45:18.306Z,101145.28
2022-12-27T23:48:21.343Z,101138.09
2022-12-27T23:51:23.896Z,101127.91
2022-12-27T23:54:25.661Z,101137.88
2022-12-27T23:57:27.336Z,101131.84
